createdAt,value
2022-09-03T00:02:07.968Z,1.83
2022-09-03T00:04:57.445Z,2.10
2022-09-03T00:07:32.933Z,2.20
2022-09-03T00:10:04.883Z,2.40
2022-09-03T00:12:37.094Z,2.17
2022-09-03T00:15:08.236Z,2.20
2022-09-03T00:17:41.563Z,2.25
2022-09-03T00:20:22.164Z,2.22
2022-09-03T00:22:52.325Z,2.42
2022-09-03T00:25:26.746Z,2.45
2022-09-03T00:27:57.854Z,2.00
2022-09-03T00:30:27.956Z,2.03
2022-09-03T00:33:05.707Z,1.90
2022-09-03T00:35:38.268Z,1.83
2022-09-03T00:38:05.890Z,2.00
2022-09-03T00:41:01.065Z,2.17
2022-09-03T00:43:51.474Z,2.12
2022-09-03T00:46:30.403Z,1.83
2022-09-03T00:49:06.938Z,1.95
2022-09-03T00:51:42.755Z,2.22
2022-09-03T00:54:25.462Z,2.17
2022-09-03T00:57:12.615Z,2.10
2022-09-03T00:59:45.739Z,2.20
2022-09-03T01:02:26.802Z,1.90
2022-09-03T01:05:22.862Z,2.10
2022-09-03T01:08:04.964Z,1.77
2022-09-03T01:10:32.377Z,2.10
2022-09-03T01:13:11.093Z,1.80
2022-09-03T01:15:45.844Z,1.85
2022-09-03T01:18:31.448Z,2.55
2022-09-03T01:20:59.127Z,1.97
2022-09-03T01:23:54.711Z,2.05
2022-09-03T01:27:08.619Z,2.30
2022-09-03T01:29:40.361Z,1.98
2022-09-03T01:32:25.903Z,2.37
2022-09-03T01:35:05.543Z,2.37
2022-09-03T01:37:54.355Z,2.45
2022-09-03T01:40:48.027Z,2.92
2022-09-03T01:43:45.608Z,2.33
2022-09-03T01:46:23.111Z,2.30
2022-09-03T01:49:00.811Z,2.00
2022-09-03T01:51:29.799Z,2.15
2022-09-03T01:54:17.551Z,2.25
2022-09-03T01:57:12.837Z,2.55
2022-09-03T02:00:06.733Z,2.50
2022-09-03T02:02:41.315Z,2.50
2022-09-03T02:05:10.713Z,2.10
2022-09-03T02:07:43.146Z,1.90
2022-09-03T02:10:20.780Z,2.37
2022-09-03T02:12:52.167Z,2.10
2022-09-03T02:15:22.164Z,1.83
2022-09-03T02:17:54.068Z,2.08
2022-09-03T02:20:23.661Z,2.40
2022-09-03T02:22:51.281Z,2.58
2022-09-03T02:25:19.033Z,2.40
2022-09-03T02:27:48.852Z,2.50
2022-09-03T02:30:18.587Z,2.08
2022-09-03T02:32:46.032Z,2.45
2022-09-03T02:35:13.768Z,2.20
2022-09-03T02:37:41.708Z,2.05
2022-09-03T02:40:10.378Z,2.30
2022-09-03T02:42:38.371Z,2.12
2022-09-03T02:45:12.291Z,2.72
2022-09-03T02:47:41.424Z,2.45
2022-09-03T02:50:09.314Z,2.45
2022-09-03T02:52:36.796Z,2.30
2022-09-03T02:55:04.924Z,2.65
2022-09-03T02:57:32.457Z,2.80
2022-09-03T02:59:59.945Z,2.95
2022-09-03T03:02:27.755Z,3.50
2022-09-03T03:04:55.893Z,3.17
2022-09-03T03:07:23.386Z,3.60
2022-09-03T03:09:51.129Z,4.25
2022-09-03T03:12:19.917Z,4.03
2022-09-03T03:14:47.344Z,4.20
2022-09-03T03:17:15.057Z,4.43
2022-09-03T03:19:43.196Z,4.43
2022-09-03T03:22:10.719Z,5.18
2022-09-03T03:24:38.454Z,4.72
2022-09-03T03:27:07.242Z,4.82
2022-09-03T03:29:35.111Z,5.43
2022-09-03T03:32:03.060Z,5.47
2022-09-03T03:34:30.629Z,5.95
2022-09-03T03:36:58.340Z,5.70
2022-09-03T03:39:26.175Z,5.82
2022-09-03T03:41:53.732Z,5.70
2022-09-03T03:44:21.310Z,5.50
2022-09-03T03:46:49.192Z,6.07
2022-09-03T03:49:16.661Z,6.30
2022-09-03T03:51:44.137Z,7.50
2022-09-03T03:54:14.492Z,6.93
2022-09-03T03:56:46.866Z,7.03
2022-09-03T03:59:23.354Z,6.43
2022-09-03T04:01:50.870Z,6.87
2022-09-03T04:04:18.627Z,6.95
2022-09-03T04:06:46.135Z,6.40
2022-09-03T04:09:13.583Z,6.65
2022-09-03T04:11:41.342Z,6.12
2022-09-03T04:14:08.803Z,6.68
2022-09-03T04:16:36.548Z,5.50
2022-09-03T04:19:04.976Z,5.70
2022-09-03T04:21:32.464Z,5.75
2022-09-03T04:24:00.068Z,5.32
2022-09-03T04:26:32.540Z,5.37
2022-09-03T04:29:02.350Z,4.75
2022-09-03T04:31:30.358Z,4.20
2022-09-03T04:33:59.758Z,3.72
2022-09-03T04:36:29.612Z,3.72
2022-09-03T04:38:59.626Z,3.05
2022-09-03T04:41:29.396Z,3.42
2022-09-03T04:43:58.147Z,3.27
2022-09-03T04:46:33.731Z,3.10
2022-09-03T04:49:02.636Z,3.12
2022-09-03T04:51:31.465Z,2.72
2022-09-03T04:54:01.244Z,4.30
2022-09-03T04:56:31.159Z,4.80
2022-09-03T04:59:09.696Z,3.12
2022-09-03T05:01:38.977Z,2.17
2022-09-03T05:04:07.479Z,3.15
2022-09-03T05:06:36.035Z,2.83
2022-09-03T05:09:05.143Z,2.80
2022-09-03T05:11:32.707Z,4.00
2022-09-03T05:14:01.029Z,2.50
2022-09-03T05:16:30.810Z,2.35
2022-09-03T05:19:01.073Z,2.35
2022-09-03T05:21:29.357Z,2.63
2022-09-03T05:23:57.342Z,2.70
2022-09-03T05:26:29.670Z,3.30
2022-09-03T05:29:02.260Z,2.78
2022-09-03T05:31:31.914Z,2.22
2022-09-03T05:34:02.661Z,2.47
2022-09-03T05:36:32.238Z,3.15
2022-09-03T05:39:00.243Z,2.33
2022-09-03T05:41:29.029Z,2.70
2022-09-03T05:43:59.173Z,2.60
2022-09-03T05:46:32.842Z,2.43
2022-09-03T05:49:05.747Z,2.42
2022-09-03T05:51:35.537Z,2.45
2022-09-03T05:54:03.872Z,2.65
2022-09-03T05:56:32.704Z,2.25
2022-09-03T05:59:05.582Z,2.97
2022-09-03T06:01:50.210Z,2.70
2022-09-03T06:04:19.987Z,2.60
2022-09-03T06:06:48.031Z,2.65
2022-09-03T06:09:20.521Z,2.92
2022-09-03T06:11:50.144Z,2.90
2022-09-03T06:14:18.140Z,2.17
2022-09-03T06:16:49.551Z,2.60
2022-09-03T06:19:17.638Z,2.70
2022-09-03T06:21:46.383Z,2.35
2022-09-03T06:24:19.012Z,2.20
2022-09-03T06:26:48.116Z,2.30
2022-09-03T06:29:16.033Z,2.58
2022-09-03T06:31:43.572Z,2.60
2022-09-03T06:34:12.597Z,2.47
2022-09-03T06:36:41.329Z,15.37
2022-09-03T06:39:08.860Z,2.87
2022-09-03T06:41:36.676Z,2.05
2022-09-03T06:44:06.387Z,2.30
2022-09-03T06:46:36.091Z,2.08
2022-09-03T06:49:03.897Z,2.60
2022-09-03T06:51:33.019Z,2.05
2022-09-03T06:54:03.052Z,2.42
2022-09-03T06:56:37.414Z,2.05
2022-09-03T06:59:14.659Z,2.53
2022-09-03T07:01:45.506Z,2.47
2022-09-03T07:04:16.709Z,3.10
2022-09-03T07:06:47.476Z,2.12
2022-09-03T07:09:15.871Z,2.70
2022-09-03T07:11:48.026Z,3.33
2022-09-03T07:14:19.802Z,2.83
2022-09-03T07:16:48.644Z,2.75
2022-09-03T07:19:16.494Z,3.25
2022-09-03T07:21:49.558Z,3.65
2022-09-03T07:24:19.806Z,3.70
2022-09-03T07:26:49.161Z,3.20
2022-09-03T07:29:20.709Z,2.90
2022-09-03T07:31:51.916Z,2.92
2022-09-03T07:34:22.191Z,2.95
2022-09-03T07:36:51.995Z,3.22
2022-09-03T07:39:19.848Z,2.83
2022-09-03T07:41:47.838Z,3.08
2022-09-03T07:44:19.551Z,3.12
2022-09-03T07:46:51.121Z,3.03
2022-09-03T07:49:21.683Z,2.92
2022-09-03T07:51:52.292Z,2.87
2022-09-03T07:54:21.590Z,2.97
2022-09-03T07:56:49.147Z,3.03
2022-09-03T07:59:16.961Z,3.33
2022-09-03T08:01:44.775Z,3.45
2022-09-03T08:04:12.607Z,2.83
2022-09-03T08:06:40.271Z,3.05
2022-09-03T08:09:11.413Z,3.10
2022-09-03T08:11:43.231Z,3.05
2022-09-03T08:14:12.625Z,3.42
2022-09-03T08:16:42.542Z,2.83
2022-09-03T08:19:11.324Z,2.80
2022-09-03T08:21:41.834Z,3.12
2022-09-03T08:24:11.112Z,2.70
2022-09-03T08:26:46.215Z,2.80
2022-09-03T08:29:15.611Z,2.70
2022-09-03T08:31:43.900Z,2.72
2022-09-03T08:34:11.936Z,2.50
2022-09-03T08:36:43.065Z,2.62
2022-09-03T08:39:11.517Z,2.95
2022-09-03T08:41:50.941Z,2.50
2022-09-03T08:44:31.782Z,2.10
2022-09-03T08:47:09.774Z,2.50
2022-09-03T08:49:47.784Z,2.22
2022-09-03T08:52:49.859Z,2.60
2022-09-03T08:55:29.275Z,2.70
2022-09-03T08:58:07.213Z,2.62
2022-09-03T09:00:42.722Z,2.50
2022-09-03T09:03:32.211Z,2.53
2022-09-03T09:06:20.498Z,2.20
2022-09-03T09:09:12.933Z,2.47
2022-09-03T09:11:40.597Z,2.67
2022-09-03T09:14:30.952Z,2.50
2022-09-03T09:17:04.808Z,3.72
2022-09-03T09:20:21.757Z,2.42
2022-09-03T09:22:53.104Z,2.23
2022-09-03T09:25:23.222Z,2.22
2022-09-03T09:27:52.291Z,2.00
2022-09-03T09:30:20.034Z,2.65
2022-09-03T09:32:47.542Z,2.40
2022-09-03T09:35:17.980Z,2.17
2022-09-03T09:37:53.916Z,2.72
2022-09-03T09:40:36.139Z,2.50
2022-09-03T09:43:09.569Z,3.10
2022-09-03T09:45:41.689Z,1.98
2022-09-03T09:48:15.157Z,2.10
2022-09-03T09:50:43.113Z,1.98
2022-09-03T09:53:15.088Z,2.60
2022-09-03T09:55:56.540Z,2.15
2022-09-03T09:58:28.353Z,2.30
2022-09-03T10:01:01.021Z,2.33
2022-09-03T10:03:35.064Z,2.10
2022-09-03T10:06:26.656Z,2.17
2022-09-03T10:09:15.979Z,2.30
2022-09-03T10:11:52.178Z,2.00
2022-09-03T10:14:35.387Z,2.77
2022-09-03T10:17:36.900Z,1.70
2022-09-03T10:20:27.533Z,1.77
2022-09-03T10:22:57.571Z,2.00
2022-09-03T10:25:29.584Z,2.10
2022-09-03T10:28:00.594Z,1.90
2022-09-03T10:30:32.429Z,2.00
2022-09-03T10:33:12.785Z,2.10
2022-09-03T10:35:46.243Z,1.73
2022-09-03T10:38:33.402Z,2.30
2022-09-03T10:41:34.384Z,1.90
2022-09-03T10:44:19.509Z,1.77
2022-09-03T10:47:07.594Z,1.90
2022-09-03T10:49:53.616Z,1.90
2022-09-03T10:52:30.983Z,1.83
2022-09-03T10:55:10.405Z,1.80
2022-09-03T10:58:03.224Z,1.60
2022-09-03T11:00:32.500Z,2.05
2022-09-03T11:03:27.804Z,1.90
2022-09-03T11:06:01.410Z,2.10
2022-09-03T11:08:46.809Z,1.27
2022-09-03T11:11:20.119Z,1.45
2022-09-03T11:13:54.077Z,1.33
2022-09-03T11:16:26.942Z,1.42
2022-09-03T11:19:17.030Z,1.50
2022-09-03T11:21:45.302Z,1.53
2022-09-03T11:24:22.829Z,1.45
2022-09-03T11:26:56.575Z,1.48
2022-09-03T11:30:03.162Z,1.60
2022-09-03T11:32:59.866Z,1.80
2022-09-03T11:35:29.632Z,1.37
2022-09-03T11:38:02.921Z,1.40
2022-09-03T11:40:36.044Z,1.65
2022-09-03T11:43:26.056Z,1.30
2022-09-03T11:46:14.570Z,1.58
2022-09-03T11:48:44.976Z,1.43
2022-09-03T11:51:30.784Z,1.50
2022-09-03T11:54:23.774Z,1.40
2022-09-03T11:57:04.037Z,1.58
2022-09-03T11:59:31.532Z,1.35
2022-09-03T12:02:02.700Z,1.23
2022-09-03T12:05:07.012Z,1.58
2022-09-03T12:07:52.710Z,1.87
2022-09-03T12:10:38.285Z,1.52
2022-09-03T12:13:08.688Z,1.58
2022-09-03T12:16:02.624Z,1.30
2022-09-03T12:18:31.579Z,1.75
2022-09-03T12:21:00.210Z,2.05
2022-09-03T12:23:29.163Z,1.62
2022-09-03T12:25:59.377Z,1.30
2022-09-03T12:28:31.035Z,1.70
2022-09-03T12:31:08.335Z,1.33
2022-09-03T12:33:41.847Z,1.58
2022-09-03T12:36:09.809Z,1.30
2022-09-03T12:39:00.784Z,1.40
2022-09-03T12:41:31.686Z,1.40
2022-09-03T12:44:00.931Z,1.87
2022-09-03T12:46:33.139Z,2.00
2022-09-03T12:52:20.522Z,1.52
2022-09-03T12:54:55.960Z,1.33
2022-09-03T12:57:40.821Z,1.50
2022-09-03T13:00:10.718Z,1.62
2022-09-03T13:02:53.450Z,1.30
2022-09-03T13:05:25.913Z,1.23
2022-09-03T13:07:57.053Z,1.20
2022-09-03T13:10:42.232Z,0.90
2022-09-03T13:13:23.982Z,1.40
2022-09-03T13:16:27.832Z,1.23
2022-09-03T13:19:17.932Z,1.70
2022-09-03T13:21:52.914Z,1.10
2022-09-03T13:24:33.436Z,1.50
2022-09-03T13:27:09.015Z,1.40
2022-09-03T13:29:40.398Z,1.20
2022-09-03T13:32:43.325Z,1.70
2022-09-03T13:35:18.293Z,1.43
2022-09-03T13:37:53.681Z,1.85
2022-09-03T13:40:32.311Z,1.20
2022-09-03T13:43:23.136Z,0.98
2022-09-03T13:45:56.546Z,1.35
2022-09-03T13:48:57.419Z,1.20
2022-09-03T13:51:43.392Z,1.30
2022-09-03T13:54:48.268Z,1.42
2022-09-03T13:57:32.967Z,1.25
2022-09-03T14:00:08.484Z,1.30
2022-09-03T14:02:54.485Z,1.40
2022-09-03T14:05:40.908Z,1.40
2022-09-03T14:08:32.797Z,1.30
2022-09-03T14:11:24.125Z,1.02
2022-09-03T14:14:19.674Z,1.48
2022-09-03T14:17:12.422Z,1.40
2022-09-03T14:19:43.322Z,1.02
2022-09-03T14:22:31.495Z,1.20
2022-09-03T14:25:03.227Z,0.90
2022-09-03T14:27:32.180Z,1.12
2022-09-03T14:30:01.222Z,1.20
2022-09-03T14:32:51.491Z,1.10
2022-09-03T14:35:25.247Z,0.93
2022-09-03T14:38:11.107Z,1.87
2022-09-03T14:40:57.188Z,1.42
2022-09-03T14:43:28.703Z,1.40
2022-09-03T14:46:15.008Z,1.30
2022-09-03T14:49:04.420Z,1.12
2022-09-03T14:51:44.291Z,1.10
2022-09-03T14:54:34.258Z,1.20
2022-09-03T14:57:39.494Z,1.53
2022-09-03T15:00:21.421Z,1.30
2022-09-03T15:03:13.622Z,1.40
2022-09-03T15:05:51.701Z,1.15
2022-09-03T15:08:54.431Z,1.52
2022-09-03T15:11:27.694Z,1.17
2022-09-03T15:14:27.158Z,1.37
2022-09-03T15:17:08.921Z,1.58
2022-09-03T15:19:43.545Z,1.20
2022-09-03T15:22:33.209Z,1.50
2022-09-03T15:25:22.853Z,2.17
2022-09-03T15:27:59.669Z,1.20
2022-09-03T15:30:35.638Z,1.08
2022-09-03T15:33:23.526Z,2.75
2022-09-03T15:36:12.455Z,1.50
2022-09-03T15:38:47.131Z,1.40
2022-09-03T15:41:29.337Z,1.55
2022-09-03T15:44:01.361Z,2.03
2022-09-03T15:46:49.694Z,0.88
2022-09-03T15:49:26.752Z,1.20
2022-09-03T15:52:06.896Z,1.27
2022-09-03T15:54:46.883Z,1.40
2022-09-03T15:57:21.923Z,1.92
2022-09-03T16:00:08.820Z,3.00
2022-09-03T16:02:50.490Z,1.95
2022-09-03T16:05:50.868Z,1.43
2022-09-03T16:08:33.981Z,1.73
2022-09-03T16:11:19.530Z,1.10
2022-09-03T16:14:05.336Z,1.45
2022-09-03T16:16:42.737Z,1.67
2022-09-03T16:19:31.385Z,1.17
2022-09-03T16:22:04.991Z,1.10
2022-09-03T16:24:41.763Z,1.48
2022-09-03T16:27:31.516Z,1.60
2022-09-03T16:30:05.317Z,1.52
2022-09-03T16:33:22.148Z,1.30
2022-09-03T16:36:06.243Z,1.67
2022-09-03T16:38:54.585Z,1.17
2022-09-03T16:41:48.632Z,1.42
2022-09-03T16:44:25.187Z,1.40
2022-09-03T16:46:53.516Z,1.03
2022-09-03T16:49:48.716Z,1.40
2022-09-03T16:52:53.292Z,1.50
2022-09-03T16:55:43.971Z,1.42
2022-09-03T16:58:18.018Z,1.70
2022-09-03T17:00:45.597Z,1.50
2022-09-03T17:03:26.406Z,2.08
2022-09-03T17:06:24.977Z,4.18
2022-09-03T17:09:07.280Z,2.45
2022-09-03T17:11:46.469Z,1.98
2022-09-03T17:15:00.308Z,1.50
2022-09-03T17:17:53.606Z,1.25
2022-09-03T17:20:47.154Z,1.40
2022-09-03T17:23:52.987Z,1.60
2022-09-03T17:26:55.445Z,3.85
2022-09-03T17:29:37.381Z,2.53
2022-09-03T17:32:28.439Z,2.65
2022-09-03T17:35:10.042Z,1.58
2022-09-03T17:37:56.717Z,1.77
2022-09-03T17:40:27.497Z,1.52
2022-09-03T17:42:55.226Z,1.67
2022-09-03T17:45:41.748Z,1.52
2022-09-03T17:48:11.317Z,1.75
2022-09-03T17:50:54.312Z,1.90
2022-09-03T17:53:37.018Z,1.35
2022-09-03T17:56:08.784Z,1.37
2022-09-03T17:58:54.037Z,1.40
2022-09-03T18:01:27.224Z,1.60
2022-09-03T18:04:25.331Z,1.73
2022-09-03T18:06:58.375Z,2.30
2022-09-03T18:09:37.872Z,1.80
2022-09-03T18:12:13.285Z,1.80
2022-09-03T18:14:57.132Z,1.90
2022-09-03T18:17:39.519Z,1.90
2022-09-03T18:20:27.863Z,1.55
2022-09-03T18:23:37.317Z,1.50
2022-09-03T18:26:33.975Z,1.80
2022-09-03T18:29:25.259Z,1.90
2022-09-03T18:32:11.761Z,1.95
2022-09-03T18:34:58.265Z,2.15
2022-09-03T18:37:46.318Z,1.90
2022-09-03T18:40:45.368Z,2.15
2022-09-03T18:44:02.628Z,2.00
2022-09-03T18:50:27.443Z,2.08
2022-09-03T18:53:29.896Z,1.60
2022-09-03T18:56:48.853Z,1.80
2022-09-03T19:00:17.336Z,1.98
2022-09-03T19:03:31.635Z,1.95
2022-09-03T19:06:36.565Z,1.90
2022-09-03T19:09:38.319Z,1.80
2022-09-03T19:12:33.567Z,2.03
2022-09-03T19:16:30.934Z,1.83
2022-09-03T19:19:26.765Z,2.45
2022-09-03T19:22:37.909Z,2.10
2022-09-03T19:25:30.052Z,1.67
2022-09-03T19:28:38.480Z,1.90
2022-09-03T19:31:50.500Z,2.22
2022-09-03T19:34:58.977Z,2.10
2022-09-03T19:38:00.038Z,1.90
2022-09-03T19:41:23.402Z,2.10
2022-09-03T19:44:39.825Z,2.25
2022-09-03T19:47:26.766Z,4.53
2022-09-03T19:50:39.687Z,3.72
2022-09-03T19:53:30.282Z,5.82
2022-09-03T19:56:20.084Z,3.43
2022-09-03T19:59:20.725Z,3.15
2022-09-03T20:02:07.377Z,3.72
2022-09-03T20:04:57.924Z,5.50
2022-09-03T20:07:44.226Z,5.43
2022-09-03T20:10:22.348Z,9.37
2022-09-03T20:13:17.397Z,10.90
2022-09-03T20:16:11.537Z,7.45
2022-09-03T20:19:11.577Z,5.65
2022-09-03T20:21:49.779Z,7.70
2022-09-03T20:24:39.873Z,4.00
2022-09-03T20:27:10.325Z,4.18
2022-09-03T20:29:45.650Z,3.83
2022-09-03T20:32:29.368Z,3.33
2022-09-03T20:35:44.378Z,3.05
2022-09-03T20:38:45.834Z,6.20
2022-09-03T20:41:48.984Z,4.90
2022-09-03T20:44:22.713Z,4.00
2022-09-03T20:47:05.689Z,3.78
2022-09-03T20:49:40.485Z,3.33
2022-09-03T20:52:15.643Z,2.83
2022-09-03T20:55:05.316Z,2.45
2022-09-03T20:57:54.011Z,2.70
2022-09-03T21:00:23.216Z,2.50
2022-09-03T21:03:14.207Z,2.78
2022-09-03T21:06:00.368Z,2.30
2022-09-03T21:08:59.068Z,2.55
2022-09-03T21:11:47.759Z,3.05
2022-09-03T21:14:37.056Z,2.55
2022-09-03T21:17:26.569Z,3.58
2022-09-03T21:20:13.861Z,3.60
2022-09-03T21:23:00.228Z,4.50
2022-09-03T21:25:38.747Z,5.05
2022-09-03T21:28:19.576Z,4.80
2022-09-03T21:30:49.499Z,4.82
2022-09-03T21:33:21.053Z,4.73
2022-09-03T21:36:00.548Z,4.90
2022-09-03T21:38:32.382Z,4.78
2022-09-03T21:41:03.325Z,4.25
2022-09-03T21:43:37.827Z,6.35
2022-09-03T21:46:08.220Z,5.63
2022-09-03T21:48:53.117Z,4.87
2022-09-03T21:51:25.480Z,4.72
2022-09-03T21:54:01.530Z,4.40
2022-09-03T21:56:50.050Z,4.43
2022-09-03T21:59:26.869Z,4.17
2022-09-03T22:02:12.493Z,4.00
2022-09-03T22:04:40.409Z,4.05
2022-09-03T22:07:53.288Z,3.70
2022-09-03T22:10:58.894Z,3.58
2022-09-03T22:13:58.978Z,3.20
2022-09-03T22:16:37.698Z,3.50
2022-09-03T22:19:08.997Z,3.72
2022-09-03T22:21:44.387Z,3.50
2022-09-03T22:24:22.888Z,3.75
2022-09-03T22:27:02.651Z,4.37
2022-09-03T22:29:35.852Z,3.92
2022-09-03T22:32:26.327Z,4.03
2022-09-03T22:35:29.134Z,3.70
2022-09-03T22:38:25.331Z,3.83
2022-09-03T22:41:16.068Z,3.43
2022-09-03T22:43:48.358Z,3.78
2022-09-03T22:46:19.251Z,4.25
2022-09-03T22:49:32.105Z,3.92
2022-09-03T22:52:12.621Z,4.28
2022-09-03T22:54:54.829Z,4.03
2022-09-03T22:57:24.755Z,4.37
2022-09-03T23:00:04.012Z,4.80
2022-09-03T23:02:31.703Z,4.43
2022-09-03T23:05:24.241Z,4.80
2022-09-03T23:08:03.251Z,4.30
2022-09-03T23:10:34.513Z,4.35
2022-09-03T23:13:09.968Z,4.00
2022-09-03T23:15:39.748Z,4.00
2022-09-03T23:18:20.461Z,4.28
2022-09-03T23:20:59.080Z,3.83
2022-09-03T23:23:31.906Z,3.50
2022-09-03T23:26:23.388Z,4.18
2022-09-03T23:28:59.672Z,3.40
2022-09-03T23:31:28.113Z,4.25
2022-09-03T23:33:55.806Z,3.60
2022-09-03T23:37:05.627Z,3.20
2022-09-03T23:39:57.909Z,3.70
2022-09-03T23:42:37.546Z,3.95
2022-09-03T23:45:34.323Z,3.60
2022-09-03T23:48:37.630Z,2.83
2022-09-03T23:51:22.760Z,3.28
2022-09-03T23:54:07.110Z,3.35
2022-09-03T23:57:04.044Z,3.60
